Time;durP1;ratioP1;P1;durP2;ratioP2;P2;SDS_P1;SDS_P2;PMS_P1;PMS_P2;Temp;Humidity;BMP_temperature;BMP_pressure;BME280_temperature;BME280_humidity;BME280_pressure;Samples;Min_cycle;Max_cycle;Signal;HPM_P1;HPM_P2
2024/01/17 00:02:04;;;;;;;9.65;5.38;;;;;;;;;;5026220;28;20096;-78
2024/01/17 00:04:30;;;;;;;10.85;5.57;;;;;;;;;;5009681;28;20140;-78
2024/01/17 00:06:57;;;;;;;7.82;5.25;;;;;;;;;;5008432;28;20049;-78
2024/01/17 00:09:23;;;;;;;9.98;5.78;;;;;;;;;;5028256;28;20136;-78
2024/01/17 00:11:50;;;;;;;9.23;6.25;;;;;;;;;;5032234;28;20051;-77
2024/01/17 00:14:16;;;;;;;12.27;5.43;;;;;;;;;;5013586;28;20121;-78
2024/01/17 00:16:42;;;;;;;13.75;6.13;;;;;;;;;;5031545;28;20541;-78
2024/01/17 00:19:08;;;;;;;11.23;5.68;;;;;;;;;;5024953;28;20478;-78
2024/01/17 00:21:34;;;;;;;12.25;6.88;;;;;;;;;;5015122;28;20056;-78
2024/01/17 00:24:00;;;;;;;9.73;6.20;;;;;;;;;;5036695;28;20049;-77
2024/01/17 00:26:26;;;;;;;15.05;7.22;;;;;;;;;;5030742;28;20045;-78
2024/01/17 00:28:52;;;;;;;11.63;7.40;;;;;;;;;;5031285;28;20068;-78
2024/01/17 00:31:18;;;;;;;11.40;6.88;;;;;;;;;;5030667;28;20065;-78
2024/01/17 00:33:44;;;;;;;11.02;7.13;;;;;;;;;;5012577;28;20465;-78
2024/01/17 00:36:11;;;;;;;8.85;6.28;;;;;;;;;;5030674;28;20043;-78
2024/01/17 00:38:37;;;;;;;12.77;7.35;;;;;;;;;;5030516;28;20407;-78
2024/01/17 00:41:05;;;;;;;8.43;6.63;;;;;;;;;;5030990;28;20507;-78
2024/01/17 00:43:32;;;;;;;9.95;6.97;;;;;;;;;;4993242;28;20056;-78
2024/01/17 00:45:58;;;;;;;9.63;6.95;;;;;;;;;;5025610;28;20052;-78
2024/01/17 00:48:24;;;;;;;12.35;7.75;;;;;;;;;;5030586;28;20041;-78
2024/01/17 00:50:51;;;;;;;14.35;7.82;;;;;;;;;;5012186;28;20111;-78
2024/01/17 00:53:17;;;;;;;13.85;8.25;;;;;;;;;;5030485;28;20848;-78
2024/01/17 00:55:42;;;;;;;14.10;8.30;;;;;;;;;;5028329;28;20115;-78
2024/01/17 00:58:08;;;;;;;14.10;7.70;;;;;;;;;;5011757;28;20448;-78
2024/01/17 01:00:34;;;;;;;16.92;9.57;;;;;;;;;;5028187;28;20048;-78
2024/01/17 01:03:00;;;;;;;13.18;7.97;;;;;;;;;;5012040;28;20472;-78
2024/01/17 01:05:26;;;;;;;13.38;8.45;;;;;;;;;;5010286;28;20413;-78
2024/01/17 01:07:52;;;;;;;13.25;8.65;;;;;;;;;;5029773;28;20514;-77
2024/01/17 01:10:20;;;;;;;14.23;8.27;;;;;;;;;;5011617;28;20053;-78
2024/01/17 01:12:46;;;;;;;13.32;8.52;;;;;;;;;;5029372;28;20058;-78
2024/01/17 01:15:12;;;;;;;14.30;8.45;;;;;;;;;;5028989;28;20053;-78
2024/01/17 01:17:38;;;;;;;11.43;8.30;;;;;;;;;;5032585;28;20049;-78
2024/01/17 01:20:04;;;;;;;13.18;8.05;;;;;;;;;;5014475;28;20415;-78
2024/01/17 01:22:32;;;;;;;12.35;8.45;;;;;;;;;;4993098;28;20042;-78
2024/01/17 01:24:58;;;;;;;13.93;8.73;;;;;;;;;;5027714;28;20053;-78
2024/01/17 01:27:24;;;;;;;14.95;9.05;;;;;;;;;;5027055;28;20033;-78
2024/01/17 01:29:50;;;;;;;16.15;8.80;;;;;;;;;;5011175;28;20095;-78
2024/01/17 01:32:16;;;;;;;12.45;8.52;;;;;;;;;;5011665;28;20050;-78
2024/01/17 01:34:42;;;;;;;16.30;8.70;;;;;;;;;;5029142;28;20052;-78
2024/01/17 01:37:08;;;;;;;11.30;8.00;;;;;;;;;;5028139;28;20127;-78
2024/01/17 01:39:34;;;;;;;13.15;8.63;;;;;;;;;;5014494;28;20080;-78
2024/01/17 01:42:00;;;;;;;12.70;8.32;;;;;;;;;;5032575;28;20059;-78
2024/01/17 01:44:26;;;;;;;13.90;8.82;;;;;;;;;;5013118;28;20156;-78
2024/01/17 01:46:53;;;;;;;13.65;8.82;;;;;;;;;;5011851;28;20132;-78
2024/01/17 01:49:19;;;;;;;13.77;9.02;;;;;;;;;;5011894;28;20092;-78
2024/01/17 01:51:46;;;;;;;12.77;9.02;;;;;;;;;;5012096;28;20120;-78
2024/01/17 01:54:14;;;;;;;15.43;9.07;;;;;;;;;;5027669;28;20045;-78
2024/01/17 01:56:40;;;;;;;15.05;9.30;;;;;;;;;;5012787;28;20045;-78
2024/01/17 01:59:07;;;;;;;14.50;9.32;;;;;;;;;;5002815;28;20085;-78
2024/01/17 02:01:33;;;;;;;15.15;9.52;;;;;;;;;;5019167;28;20041;-77
2024/01/17 02:04:01;;;;;;;15.32;10.35;;;;;;;;;;5011275;28;20132;-78
2024/01/17 02:06:30;;;;;;;16.02;10.57;;;;;;;;;;5028137;28;20154;-78
2024/01/17 02:08:57;;;;;;;18.70;10.25;;;;;;;;;;5028798;28;20045;-78
2024/01/17 02:11:23;;;;;;;16.77;10.20;;;;;;;;;;5030234;28;20079;-78
2024/01/17 02:13:50;;;;;;;15.05;11.07;;;;;;;;;;4997440;28;20500;-77
2024/01/17 02:16:17;;;;;;;17.42;11.73;;;;;;;;;;5012027;28;20454;-78
2024/01/17 02:18:43;;;;;;;17.73;11.93;;;;;;;;;;5026948;28;20048;-78
2024/01/17 02:21:10;;;;;;;15.60;11.15;;;;;;;;;;5028423;28;20081;-78
2024/01/17 02:23:36;;;;;;;20.10;12.77;;;;;;;;;;5027927;28;20084;-78
2024/01/17 02:26:02;;;;;;;15.82;10.82;;;;;;;;;;5010898;28;20411;-78
2024/01/17 02:28:30;;;;;;;16.08;11.50;;;;;;;;;;5027607;28;20220;-78
2024/01/17 02:30:56;;;;;;;16.55;11.38;;;;;;;;;;5010647;28;20053;-78
2024/01/17 02:33:22;;;;;;;28.70;12.02;;;;;;;;;;5026707;28;20069;-78
2024/01/17 02:35:48;;;;;;;19.67;12.05;;;;;;;;;;5011115;28;20132;-78
2024/01/17 02:38:14;;;;;;;17.23;11.75;;;;;;;;;;5009733;28;20046;-78
2024/01/17 02:40:40;;;;;;;19.13;11.93;;;;;;;;;;5027795;28;20041;-78
2024/01/17 02:43:06;;;;;;;17.58;11.80;;;;;;;;;;5034829;28;20044;-78
2024/01/17 02:45:33;;;;;;;18.27;12.32;;;;;;;;;;5009442;28;20734;-78
2024/01/17 02:47:59;;;;;;;17.25;11.80;;;;;;;;;;5021373;28;20080;-77
2024/01/17 02:50:25;;;;;;;17.95;12.95;;;;;;;;;;5026330;28;20037;-78
2024/01/17 02:52:52;;;;;;;20.52;13.25;;;;;;;;;;5008991;28;20056;-78
2024/01/17 02:55:19;;;;;;;22.25;12.35;;;;;;;;;;5009513;28;20057;-78
2024/01/17 02:57:45;;;;;;;21.15;12.90;;;;;;;;;;5010964;28;20041;-78
2024/01/17 03:00:11;;;;;;;20.30;12.60;;;;;;;;;;5027169;28;20472;-78
2024/01/17 03:02:37;;;;;;;16.55;11.38;;;;;;;;;;5027094;28;20064;-78
2024/01/17 03:05:04;;;;;;;19.77;12.25;;;;;;;;;;5009338;28;20106;-78
2024/01/17 03:07:31;;;;;;;17.45;11.48;;;;;;;;;;5027665;28;20064;-78
2024/01/17 03:09:57;;;;;;;19.58;12.15;;;;;;;;;;4990746;28;20045;-78
2024/01/17 03:12:23;;;;;;;20.27;12.55;;;;;;;;;;5019109;28;20053;-78
2024/01/17 03:14:49;;;;;;;19.45;13.05;;;;;;;;;;5027876;28;20534;-78
2024/01/17 03:17:16;;;;;;;17.63;12.40;;;;;;;;;;5028186;28;20042;-78
2024/01/17 03:19:48;;;;;;;20.02;13.35;;;;;;;;;;5010195;28;20060;-78
2024/01/17 03:22:16;;;;;;;19.75;12.82;;;;;;;;;;5026502;28;20053;-78
2024/01/17 03:24:45;;;;;;;17.08;12.65;;;;;;;;;;5009429;28;20045;-78
2024/01/17 03:27:12;;;;;;;16.52;12.52;;;;;;;;;;5032455;28;20045;-78
2024/01/17 03:29:38;;;;;;;15.23;11.27;;;;;;;;;;5035866;28;20571;-78
2024/01/17 03:32:04;;;;;;;24.63;14.10;;;;;;;;;;5026542;28;20441;-78
2024/01/17 03:34:30;;;;;;;20.77;13.30;;;;;;;;;;5027311;28;20095;-78
2024/01/17 03:36:56;;;;;;;17.83;11.48;;;;;;;;;;5009795;28;20060;-78
2024/01/17 03:39:22;;;;;;;19.15;12.30;;;;;;;;;;5026392;28;20041;-78
2024/01/17 03:41:48;;;;;;;20.48;12.68;;;;;;;;;;5030983;28;20577;-78
2024/01/17 03:44:14;;;;;;;20.83;11.95;;;;;;;;;;5021331;28;20083;-78
2024/01/17 03:46:40;;;;;;;16.83;12.15;;;;;;;;;;5010513;28;20442;-78
2024/01/17 03:49:06;;;;;;;17.02;11.68;;;;;;;;;;5027497;28;20049;-78
2024/01/17 03:51:32;;;;;;;18.08;12.13;;;;;;;;;;5026018;28;20052;-77
2024/01/17 03:53:58;;;;;;;22.90;12.70;;;;;;;;;;5008607;28;20049;-78
2024/01/17 03:56:24;;;;;;;19.83;12.90;;;;;;;;;;5027952;28;20049;-78
2024/01/17 03:58:51;;;;;;;16.35;11.38;;;;;;;;;;5026766;28;20049;-78
2024/01/17 04:01:17;;;;;;;17.10;11.98;;;;;;;;;;5009031;28;20156;-78
2024/01/17 04:03:44;;;;;;;16.75;11.98;;;;;;;;;;5027156;28;20137;-78
2024/01/17 04:06:10;;;;;;;17.55;11.85;;;;;;;;;;5026674;28;20045;-78
2024/01/17 04:08:37;;;;;;;22.90;11.57;;;;;;;;;;5026533;28;20502;-77
2024/01/17 04:11:03;;;;;;;16.77;11.40;;;;;;;;;;5026128;28;20049;-78
2024/01/17 04:13:29;;;;;;;13.85;10.75;;;;;;;;;;5026399;28;20056;-78
2024/01/17 04:15:55;;;;;;;16.23;11.98;;;;;;;;;;4993034;28;20049;-78
2024/01/17 04:18:21;;;;;;;14.88;10.68;;;;;;;;;;4992751;28;20046;-78
2024/01/17 04:20:47;;;;;;;18.73;11.52;;;;;;;;;;5007906;28;20091;-78
2024/01/17 04:23:15;;;;;;;15.07;11.75;;;;;;;;;;5009540;28;20041;-78
2024/01/17 04:25:41;;;;;;;21.10;12.40;;;;;;;;;;5009359;28;20057;-78
2024/01/17 04:28:07;;;;;;;15.25;10.90;;;;;;;;;;5026490;28;20049;-77
2024/01/17 04:30:33;;;;;;;16.70;10.68;;;;;;;;;;5007654;28;20049;-78
2024/01/17 04:33:00;;;;;;;17.50;11.15;;;;;;;;;;5012731;28;20045;-78
2024/01/17 04:35:26;;;;;;;13.85;9.95;;;;;;;;;;5028473;28;20523;-78
2024/01/17 04:37:53;;;;;;;15.02;11.30;;;;;;;;;;5027205;28;20645;-78
2024/01/17 04:40:19;;;;;;;13.98;10.75;;;;;;;;;;5026273;28;20073;-78
2024/01/17 04:42:48;;;;;;;17.48;11.82;;;;;;;;;;5027484;28;20048;-78
2024/01/17 04:45:14;;;;;;;15.23;10.98;;;;;;;;;;5003482;28;20037;-78
2024/01/17 04:47:40;;;;;;;14.30;10.00;;;;;;;;;;5007221;28;20045;-78
2024/01/17 04:50:08;;;;;;;12.73;10.07;;;;;;;;;;5025415;28;20042;-78
2024/01/17 04:52:34;;;;;;;16.70;10.25;;;;;;;;;;5025172;28;20049;-78
2024/01/17 04:55:00;;;;;;;14.68;10.02;;;;;;;;;;4993286;28;20060;-78
2024/01/17 04:57:26;;;;;;;17.23;10.88;;;;;;;;;;5031079;28;20042;-78
2024/01/17 04:59:52;;;;;;;17.33;11.02;;;;;;;;;;5030022;28;20064;-78
2024/01/17 05:02:18;;;;;;;13.38;9.85;;;;;;;;;;5028745;28;20057;-78
2024/01/17 05:04:44;;;;;;;12.98;9.60;;;;;;;;;;5029707;28;20061;-78
2024/01/17 05:07:10;;;;;;;16.42;10.60;;;;;;;;;;5012072;28;20061;-79
2024/01/17 05:09:37;;;;;;;15.68;10.32;;;;;;;;;;5011389;28;20092;-78
2024/01/17 05:12:04;;;;;;;15.23;10.30;;;;;;;;;;5050684;28;20063;-78
2024/01/17 05:14:30;;;;;;;12.68;9.70;;;;;;;;;;5022991;28;20129;-78
2024/01/17 05:16:56;;;;;;;13.10;9.80;;;;;;;;;;5026454;28;21761;-78
2024/01/17 05:19:22;;;;;;;14.10;10.15;;;;;;;;;;5030273;28;20041;-79
2024/01/17 05:21:48;;;;;;;14.40;10.18;;;;;;;;;;5012177;28;20048;-78
2024/01/17 05:24:14;;;;;;;15.48;9.95;;;;;;;;;;5029187;28;20046;-78
2024/01/17 05:26:40;;;;;;;18.13;11.02;;;;;;;;;;5030034;28;20064;-78
2024/01/17 05:29:06;;;;;;;17.05;9.65;;;;;;;;;;5012567;28;20045;-78
2024/01/17 05:31:32;;;;;;;14.82;9.30;;;;;;;;;;5028856;28;20049;-78
2024/01/17 05:33:58;;;;;;;16.60;10.25;;;;;;;;;;5012874;28;20432;-78
2024/01/17 05:36:24;;;;;;;14.65;10.75;;;;;;;;;;5012992;28;20507;-78
2024/01/17 05:38:50;;;;;;;12.48;9.48;;;;;;;;;;5011506;28;20054;-78
2024/01/17 05:41:16;;;;;;;12.70;9.27;;;;;;;;;;4996611;28;20068;-78
2024/01/17 05:43:42;;;;;;;16.33;9.23;;;;;;;;;;5028684;28;20050;-78
2024/01/17 05:46:09;;;;;;;15.00;9.82;;;;;;;;;;4994436;28;20079;-78
2024/01/17 05:48:35;;;;;;;16.50;9.43;;;;;;;;;;5028427;28;20423;-78
2024/01/17 05:51:01;;;;;;;15.85;9.50;;;;;;;;;;5029686;28;20048;-78
2024/01/17 05:53:27;;;;;;;14.23;8.82;;;;;;;;;;5028781;28;20041;-78
2024/01/17 05:55:53;;;;;;;12.32;8.90;;;;;;;;;;5012265;28;20513;-78
2024/01/17 05:58:19;;;;;;;12.65;8.40;;;;;;;;;;5010720;28;20141;-78
2024/01/17 06:00:45;;;;;;;13.73;8.93;;;;;;;;;;5032291;28;20053;-77
2024/01/17 06:03:11;;;;;;;12.23;8.80;;;;;;;;;;4992349;28;20065;-78
2024/01/17 06:05:37;;;;;;;18.25;9.82;;;;;;;;;;5027956;28;20460;-79
2024/01/17 06:08:04;;;;;;;18.25;10.48;;;;;;;;;;5009786;28;20077;-78
2024/01/17 06:10:30;;;;;;;13.95;8.88;;;;;;;;;;5010678;28;20064;-78
2024/01/17 06:12:56;;;;;;;20.02;13.02;;;;;;;;;;5029363;28;20041;-78
2024/01/17 06:15:22;;;;;;;16.08;10.30;;;;;;;;;;5028701;28;20183;-78
2024/01/17 06:17:48;;;;;;;16.70;12.18;;;;;;;;;;5026515;28;20103;-78
2024/01/17 06:20:14;;;;;;;16.08;10.63;;;;;;;;;;5029205;28;20048;-78
2024/01/17 06:22:40;;;;;;;17.63;9.75;;;;;;;;;;5029101;28;20085;-78
2024/01/17 06:25:07;;;;;;;13.63;9.48;;;;;;;;;;5025637;28;20042;-78
2024/01/17 06:27:33;;;;;;;13.13;9.35;;;;;;;;;;5011679;28;20806;-78
2024/01/17 06:29:59;;;;;;;12.57;8.98;;;;;;;;;;5009993;28;20144;-78
2024/01/17 06:32:27;;;;;;;14.13;9.02;;;;;;;;;;5010454;28;20045;-78
2024/01/17 06:34:53;;;;;;;15.65;9.98;;;;;;;;;;4994703;28;20041;-78
2024/01/17 06:37:19;;;;;;;13.85;9.57;;;;;;;;;;5019813;28;20126;-78
2024/01/17 06:39:45;;;;;;;14.25;9.90;;;;;;;;;;5028293;28;20045;-78
2024/01/17 06:42:11;;;;;;;16.20;10.05;;;;;;;;;;5010635;28;20609;-78
2024/01/17 06:44:37;;;;;;;14.02;9.93;;;;;;;;;;5027282;28;20037;-78
2024/01/17 06:47:03;;;;;;;13.63;9.70;;;;;;;;;;5027019;28;20048;-78
2024/01/17 06:49:29;;;;;;;13.27;9.10;;;;;;;;;;4994553;28;20053;-78
2024/01/17 06:51:58;;;;;;;14.68;10.00;;;;;;;;;;5026350;28;20056;-79
2024/01/17 06:54:31;;;;;;;15.38;9.98;;;;;;;;;;5026483;28;20045;-77
2024/01/17 06:56:58;;;;;;;11.90;9.23;;;;;;;;;;5028491;28;20049;-78
2024/01/17 06:59:24;;;;;;;17.80;9.65;;;;;;;;;;5030152;28;20041;-78
2024/01/17 07:01:50;;;;;;;14.43;10.45;;;;;;;;;;5024766;28;20073;-78
2024/01/17 07:04:16;;;;;;;17.95;11.32;;;;;;;;;;5030680;28;20448;-78
2024/01/17 07:06:42;;;;;;;19.77;11.35;;;;;;;;;;5028458;28;20435;-78
2024/01/17 07:09:10;;;;;;;22.92;13.82;;;;;;;;;;5010346;28;20077;-78
2024/01/17 07:11:37;;;;;;;15.43;10.98;;;;;;;;;;5023182;28;20103;-78
2024/01/17 07:14:03;;;;;;;14.07;9.98;;;;;;;;;;5032364;28;20665;-79
2024/01/17 07:16:29;;;;;;;15.80;11.02;;;;;;;;;;5030749;28;20095;-78
2024/01/17 07:18:57;;;;;;;22.73;15.98;;;;;;;;;;5048110;28;20041;-78
2024/01/17 07:21:23;;;;;;;21.33;12.02;;;;;;;;;;5048574;28;20360;-78
2024/01/17 07:23:50;;;;;;;15.43;11.85;;;;;;;;;;5047887;28;20075;-78
2024/01/17 07:26:16;;;;;;;19.33;11.45;;;;;;;;;;5034900;28;20088;-77
2024/01/17 07:28:42;;;;;;;14.85;9.90;;;;;;;;;;5027926;28;20112;-78
2024/01/17 07:31:08;;;;;;;16.73;9.40;;;;;;;;;;5010749;28;20058;-78
2024/01/17 07:33:34;;;;;;;16.75;10.63;;;;;;;;;;5027830;28;20183;-78
2024/01/17 07:36:00;;;;;;;19.73;13.45;;;;;;;;;;5010529;28;20400;-78
2024/01/17 07:38:26;;;;;;;15.35;10.40;;;;;;;;;;5025260;28;20171;-78
2024/01/17 07:40:53;;;;;;;14.27;9.93;;;;;;;;;;5025963;28;20037;-79
2024/01/17 07:43:19;;;;;;;14.38;9.50;;;;;;;;;;5010244;28;20255;-78
2024/01/17 07:45:45;;;;;;;17.42;9.65;;;;;;;;;;5028032;28;20052;-78
2024/01/17 07:48:12;;;;;;;15.02;9.48;;;;;;;;;;5016184;28;20933;-78
2024/01/17 07:50:39;;;;;;;12.05;9.18;;;;;;;;;;5046914;28;20154;-79
2024/01/17 07:53:07;;;;;;;14.77;9.70;;;;;;;;;;5047186;28;20044;-78
2024/01/17 07:55:33;;;;;;;13.85;9.45;;;;;;;;;;5032504;28;20071;-78
2024/01/17 07:57:59;;;;;;;13.18;9.48;;;;;;;;;;5006512;28;20053;-78
2024/01/17 08:00:25;;;;;;;15.82;9.48;;;;;;;;;;5007041;28;20052;-78
2024/01/17 08:02:51;;;;;;;13.57;9.55;;;;;;;;;;5008663;28;20061;-78
2024/01/17 08:05:17;;;;;;;16.17;10.27;;;;;;;;;;5027690;28;20056;-78
2024/01/17 08:07:43;;;;;;;15.73;9.50;;;;;;;;;;4993746;28;20065;-78
2024/01/17 08:10:10;;;;;;;12.48;9.00;;;;;;;;;;5027681;28;20506;-78
2024/01/17 08:12:36;;;;;;;20.65;9.23;;;;;;;;;;5027900;28;20049;-78
2024/01/17 08:15:02;;;;;;;15.38;9.07;;;;;;;;;;5027851;28;20041;-78
2024/01/17 08:17:28;;;;;;;16.02;9.07;;;;;;;;;;5011928;28;20037;-78
2024/01/17 08:19:54;;;;;;;13.40;8.70;;;;;;;;;;5010023;28;20049;-78
2024/01/17 08:22:20;;;;;;;15.45;9.35;;;;;;;;;;5010022;28;20046;-79
2024/01/17 08:24:46;;;;;;;14.63;9.27;;;;;;;;;;5027682;28;20160;-80
2024/01/17 08:27:12;;;;;;;12.10;8.80;;;;;;;;;;5027576;28;20455;-79
2024/01/17 08:29:38;;;;;;;15.73;8.65;;;;;;;;;;5026937;28;20048;-79
2024/01/17 08:32:04;;;;;;;12.80;9.50;;;;;;;;;;5030427;28;20102;-78
2024/01/17 08:34:30;;;;;;;16.42;8.38;;;;;;;;;;4997417;28;20559;-78
2024/01/17 08:36:58;;;;;;;14.13;8.73;;;;;;;;;;5030688;28;20068;-79
2024/01/17 08:39:24;;;;;;;16.55;8.98;;;;;;;;;;5013845;28;20135;-79
2024/01/17 08:41:50;;;;;;;12.13;9.25;;;;;;;;;;4997216;28;20432;-78
2024/01/17 08:44:16;;;;;;;14.90;8.48;;;;;;;;;;5012847;28;20134;-79
2024/01/17 08:46:43;;;;;;;16.65;9.35;;;;;;;;;;5019852;28;20129;-80
2024/01/17 08:49:09;;;;;;;13.13;8.15;;;;;;;;;;5011595;28;20049;-79
2024/01/17 08:51:35;;;;;;;12.88;8.65;;;;;;;;;;4995060;28;20072;-79
2024/01/17 08:54:02;;;;;;;23.25;9.20;;;;;;;;;;5024485;28;20057;-79
2024/01/17 08:56:28;;;;;;;18.23;9.25;;;;;;;;;;5021770;28;20041;-79
2024/01/17 08:58:56;;;;;;;16.17;9.50;;;;;;;;;;5046865;28;20134;-79
2024/01/17 09:01:22;;;;;;;14.98;9.00;;;;;;;;;;5022933;28;20517;-79
2024/01/17 09:03:48;;;;;;;12.27;7.95;;;;;;;;;;5046948;28;20083;-80
2024/01/17 09:06:14;;;;;;;12.32;8.40;;;;;;;;;;5011673;28;20550;-80
2024/01/17 09:08:40;;;;;;;12.95;8.85;;;;;;;;;;5031637;28;20163;-80
2024/01/17 09:11:08;;;;;;;13.85;7.97;;;;;;;;;;4996396;28;20138;-79
2024/01/17 09:13:34;;;;;;;13.23;8.68;;;;;;;;;;5026744;28;20064;-79
2024/01/17 09:16:00;;;;;;;13.18;8.75;;;;;;;;;;5021926;28;20041;-79
2024/01/17 09:18:26;;;;;;;13.63;8.70;;;;;;;;;;5030627;28;20084;-78
2024/01/17 09:20:52;;;;;;;12.65;8.40;;;;;;;;;;5032878;28;20109;-78
2024/01/17 09:23:19;;;;;;;18.35;8.98;;;;;;;;;;5030652;28;20052;-78
2024/01/17 09:25:45;;;;;;;12.80;8.77;;;;;;;;;;5012293;28;20454;-78
2024/01/17 09:28:11;;;;;;;14.20;8.73;;;;;;;;;;4996257;28;20459;-80
2024/01/17 09:30:37;;;;;;;15.40;10.15;;;;;;;;;;5033421;28;20045;-79
2024/01/17 09:33:03;;;;;;;15.30;9.85;;;;;;;;;;4996624;28;20046;-79
2024/01/17 09:35:32;;;;;;;15.68;10.73;;;;;;;;;;5012694;28;20050;-79
2024/01/17 09:37:58;;;;;;;11.23;8.68;;;;;;;;;;5012219;28;20053;-79
2024/01/17 09:40:24;;;;;;;12.95;9.23;;;;;;;;;;4996545;28;20056;-79
2024/01/17 09:42:50;;;;;;;13.00;8.93;;;;;;;;;;5011343;28;20049;-78
2024/01/17 09:45:17;;;;;;;13.30;8.98;;;;;;;;;;5019406;28;20052;-78
2024/01/17 09:47:43;;;;;;;12.63;8.63;;;;;;;;;;5032316;28;20614;-78
2024/01/17 09:50:10;;;;;;;11.18;8.55;;;;;;;;;;5015630;28;20146;-78
2024/01/17 09:52:40;;;;;;;13.02;8.52;;;;;;;;;;5015243;28;20049;-78
2024/01/17 09:55:08;;;;;;;12.32;8.25;;;;;;;;;;5031735;28;20136;-78
2024/01/17 09:57:41;;;;;;;13.63;7.45;;;;;;;;;;5031942;28;20534;-78
2024/01/17 10:00:09;;;;;;;11.68;8.27;;;;;;;;;;5040099;28;20087;-79
2024/01/17 10:02:37;;;;;;;13.00;8.25;;;;;;;;;;5000595;28;20062;-79
2024/01/17 10:05:05;;;;;;;11.80;7.95;;;;;;;;;;4989130;28;20064;-78
2024/01/17 10:07:31;;;;;;;11.93;7.93;;;;;;;;;;4988510;28;20197;-78
2024/01/17 10:09:57;;;;;;;13.98;8.30;;;;;;;;;;4990763;28;20096;-78
2024/01/17 10:12:23;;;;;;;13.27;8.68;;;;;;;;;;4988663;28;20058;-79
2024/01/17 10:14:49;;;;;;;13.43;8.82;;;;;;;;;;4988766;28;20072;-79
2024/01/17 10:17:15;;;;;;;16.13;7.95;;;;;;;;;;4988562;28;20481;-80
2024/01/17 10:19:41;;;;;;;16.45;11.10;;;;;;;;;;5006761;28;20052;-80
2024/01/17 10:22:10;;;;;;;15.85;9.80;;;;;;;;;;5008414;28;20046;-79
2024/01/17 10:24:37;;;;;;;13.90;8.18;;;;;;;;;;5003699;28;20054;-78
2024/01/17 10:27:03;;;;;;;12.27;8.35;;;;;;;;;;4990966;28;20443;-79
2024/01/17 10:29:33;;;;;;;12.85;7.72;;;;;;;;;;5002584;28;20513;-81
2024/01/17 10:32:00;;;;;;;11.68;8.82;;;;;;;;;;4987805;28;20050;-79
2024/01/17 10:34:30;;;;;;;12.25;8.20;;;;;;;;;;4988579;28;20496;-79
2024/01/17 10:36:56;;;;;;;12.02;8.13;;;;;;;;;;4988033;28;20054;-79
2024/01/17 10:39:22;;;;;;;13.27;8.18;;;;;;;;;;4989853;28;20129;-80
2024/01/17 10:41:54;;;;;;;13.38;8.18;;;;;;;;;;4987731;28;20050;-80
2024/01/17 10:44:20;;;;;;;9.88;7.78;;;;;;;;;;4985808;28;20163;-80
2024/01/17 10:46:53;;;;;;;11.10;7.97;;;;;;;;;;4971705;28;20053;-78
2024/01/17 10:49:20;;;;;;;11.10;8.30;;;;;;;;;;4988540;28;20105;-79
2024/01/17 10:51:52;;;;;;;13.43;9.13;;;;;;;;;;4988123;28;20509;-78
2024/01/17 10:54:20;;;;;;;13.15;8.35;;;;;;;;;;4988202;28;20453;-79
2024/01/17 10:56:50;;;;;;;15.00;9.25;;;;;;;;;;4988688;28;20084;-79
2024/01/17 10:59:19;;;;;;;13.70;8.25;;;;;;;;;;4989952;28;20081;-79
2024/01/17 11:01:47;;;;;;;12.38;9.13;;;;;;;;;;4992179;28;20101;-79
2024/01/17 11:04:17;;;;;;;12.88;9.25;;;;;;;;;;5010255;28;20053;-79
2024/01/17 11:06:43;;;;;;;10.88;8.63;;;;;;;;;;5028641;28;20041;-79
2024/01/17 11:09:10;;;;;;;12.25;8.52;;;;;;;;;;4996577;28;20049;-79
2024/01/17 11:11:38;;;;;;;12.10;9.55;;;;;;;;;;5028648;28;20053;-78
2024/01/17 11:14:05;;;;;;;13.32;8.68;;;;;;;;;;5009974;28;20072;-78
2024/01/17 11:16:32;;;;;;;13.75;9.18;;;;;;;;;;5009568;28;20056;-78
2024/01/17 11:19:00;;;;;;;10.60;7.60;;;;;;;;;;5006334;28;20389;-79
2024/01/17 11:21:27;;;;;;;13.75;9.15;;;;;;;;;;5026501;28;20060;-80
2024/01/17 11:23:58;;;;;;;12.20;8.32;;;;;;;;;;5036567;28;20053;-79
2024/01/17 11:26:41;;;;;;;12.75;8.35;;;;;;;;;;5029562;28;20053;-81
2024/01/17 11:29:10;;;;;;;10.82;7.70;;;;;;;;;;5028887;28;20053;-82
2024/01/17 11:31:41;;;;;;;10.82;8.30;;;;;;;;;;5000904;28;20045;-81
2024/01/17 11:34:08;;;;;;;12.35;8.00;;;;;;;;;;5030377;28;20060;-82
2024/01/17 11:36:41;;;;;;;11.75;7.93;;;;;;;;;;5001516;28;20060;-82
2024/01/17 11:39:09;;;;;;;11.05;7.60;;;;;;;;;;5011789;28;20566;-81
2024/01/17 11:41:38;;;;;;;12.73;8.07;;;;;;;;;;5008293;28;20045;-82
2024/01/17 11:44:07;;;;;;;12.57;8.20;;;;;;;;;;5010629;28;20081;-81
2024/01/17 11:46:34;;;;;;;12.40;8.40;;;;;;;;;;5027933;28;20124;-82
2024/01/17 11:49:00;;;;;;;12.13;8.65;;;;;;;;;;5011531;28;20056;-81
2024/01/17 11:51:27;;;;;;;11.63;8.57;;;;;;;;;;5009951;28;20506;-81
2024/01/17 11:53:53;;;;;;;11.88;7.90;;;;;;;;;;5025919;28;20086;-81
2024/01/17 11:56:20;;;;;;;10.60;8.30;;;;;;;;;;5027703;28;20045;-81
2024/01/17 11:58:47;;;;;;;13.68;8.30;;;;;;;;;;5009401;28;20061;-81
2024/01/17 12:01:13;;;;;;;9.98;7.93;;;;;;;;;;5019379;28;20045;-81
2024/01/17 12:03:39;;;;;;;13.32;8.55;;;;;;;;;;5009603;28;20465;-81
2024/01/17 12:06:08;;;;;;;11.65;8.32;;;;;;;;;;5009310;28;20073;-81
2024/01/17 12:08:35;;;;;;;11.60;8.95;;;;;;;;;;5027901;28;20048;-80
2024/01/17 12:11:02;;;;;;;11.85;8.93;;;;;;;;;;5009918;28;20060;-80
2024/01/17 12:13:29;;;;;;;13.63;9.43;;;;;;;;;;4993640;28;20038;-81
2024/01/17 12:15:57;;;;;;;15.63;10.23;;;;;;;;;;4993514;28;20056;-81
2024/01/17 12:18:24;;;;;;;12.63;8.80;;;;;;;;;;4998820;28;20231;-81
2024/01/17 12:20:51;;;;;;;14.75;9.48;;;;;;;;;;5006128;28;20065;-81
2024/01/17 12:23:19;;;;;;;13.55;9.80;;;;;;;;;;4992850;28;20045;-81
2024/01/17 12:25:45;;;;;;;13.85;10.15;;;;;;;;;;4992450;28;20041;-81
2024/01/17 12:28:17;;;;;;;15.43;9.50;;;;;;;;;;5027430;28;20132;-81
2024/01/17 12:30:53;;;;;;;13.65;8.65;;;;;;;;;;5010213;28;20528;-82
2024/01/17 12:33:19;;;;;;;13.43;9.10;;;;;;;;;;5013679;28;20151;-82
2024/01/17 12:35:45;;;;;;;14.90;9.60;;;;;;;;;;5009933;28;20052;-81
2024/01/17 12:38:11;;;;;;;13.13;8.93;;;;;;;;;;4993904;28;20046;-78
2024/01/17 12:40:37;;;;;;;12.18;8.80;;;;;;;;;;5009943;28;20072;-80
2024/01/17 12:43:04;;;;;;;11.35;8.32;;;;;;;;;;5009476;28;20104;-80
2024/01/17 12:45:30;;;;;;;12.80;8.68;;;;;;;;;;5009678;28;20041;-80
2024/01/17 12:47:56;;;;;;;12.10;7.45;;;;;;;;;;5031476;28;20044;-80
2024/01/17 12:50:24;;;;;;;11.77;9.95;;;;;;;;;;5047578;28;20049;-80
2024/01/17 12:52:50;;;;;;;11.68;8.85;;;;;;;;;;5029244;28;20457;-80
2024/01/17 12:55:21;;;;;;;11.00;8.95;;;;;;;;;;5047144;28;20041;-80
2024/01/17 12:57:48;;;;;;;11.90;8.88;;;;;;;;;;5046909;28;20128;-80
2024/01/17 13:00:14;;;;;;;11.63;8.32;;;;;;;;;;5017154;28;20049;-80
2024/01/17 13:02:40;;;;;;;12.00;8.63;;;;;;;;;;5003809;28;20132;-80
2024/01/17 13:05:08;;;;;;;18.58;10.02;;;;;;;;;;5047167;28;20060;-81
2024/01/17 13:07:34;;;;;;;22.90;13.30;;;;;;;;;;4998624;28;20060;-80
2024/01/17 13:10:13;;;;;;;17.33;9.77;;;;;;;;;;5009804;28;20129;-80
2024/01/17 13:12:39;;;;;;;17.20;11.48;;;;;;;;;;5009292;28;20046;-81
2024/01/17 13:15:12;;;;;;;18.98;9.07;;;;;;;;;;5009535;28;20052;-80
2024/01/17 13:17:38;;;;;;;;;;;;;;;;;;5012780;28;20541;-80
2024/01/17 13:20:15;;;;;;;9.82;6.90;;;;;;;;;;5012412;28;20588;-81
2024/01/17 13:22:42;;;;;;;11.25;7.80;;;;;;;;;;4994163;28;20495;-80
2024/01/17 13:25:08;;;;;;;10.52;8.10;;;;;;;;;;5030621;28;20526;-80
2024/01/17 13:27:34;;;;;;;16.25;11.90;;;;;;;;;;4996316;28;20045;-81
2024/01/17 13:30:03;;;;;;;11.85;8.05;;;;;;;;;;5013696;28;20128;-81
2024/01/17 13:32:30;;;;;;;14.68;7.15;;;;;;;;;;4999316;28;20076;-80
2024/01/17 13:34:56;;;;;;;9.07;6.57;;;;;;;;;;5012512;28;20053;-81
2024/01/17 13:37:22;;;;;;;8.05;7.15;;;;;;;;;;5012208;28;20403;-81
2024/01/17 13:39:48;;;;;;;8.82;7.57;;;;;;;;;;5029588;28;20495;-82
2024/01/17 13:42:15;;;;;;;11.40;7.63;;;;;;;;;;5012500;28;20069;-79
2024/01/17 13:44:41;;;;;;;10.55;7.80;;;;;;;;;;5013709;28;20055;-80
2024/01/17 13:47:07;;;;;;;10.88;7.90;;;;;;;;;;5019291;28;20095;-80
2024/01/17 13:49:36;;;;;;;9.95;7.90;;;;;;;;;;5032359;28;20045;-80
2024/01/17 13:52:03;;;;;;;10.63;7.40;;;;;;;;;;5048435;28;20122;-81
2024/01/17 13:54:30;;;;;;;9.35;7.35;;;;;;;;;;5025856;28;20048;-80
2024/01/17 13:56:56;;;;;;;10.30;7.22;;;;;;;;;;5011879;28;20125;-81
2024/01/17 13:59:22;;;;;;;10.60;7.70;;;;;;;;;;5029107;28;20053;-81
2024/01/17 14:01:49;;;;;;;10.60;8.23;;;;;;;;;;5026782;28;20048;-81
2024/01/17 14:04:15;;;;;;;14.13;8.00;;;;;;;;;;5021911;28;20458;-80
2024/01/17 14:06:41;;;;;;;11.23;7.82;;;;;;;;;;5008867;28;20048;-80
2024/01/17 14:09:08;;;;;;;10.55;8.00;;;;;;;;;;5029308;28;20056;-81
2024/01/17 14:11:38;;;;;;;9.70;7.50;;;;;;;;;;5010284;28;20057;-81
2024/01/17 14:14:05;;;;;;;10.52;8.50;;;;;;;;;;5012050;28;20045;-81
2024/01/17 14:16:31;;;;;;;11.05;8.35;;;;;;;;;;5011298;28;20107;-81
2024/01/17 14:18:58;;;;;;;12.43;7.90;;;;;;;;;;5011574;28;20117;-81
2024/01/17 14:21:24;;;;;;;13.13;8.02;;;;;;;;;;5010755;28;20046;-81
2024/01/17 14:23:50;;;;;;;9.48;8.30;;;;;;;;;;5011693;28;20050;-81